Flight Track Log - Related Links

Times and Time Zones

All times are in EDT time to prevent confusion due to time zone crossing. See the SWA308 flight status page for this flight to view local times or setup timezone preferences in your user account.


Time Position Orientation Groundspeed Altitude Reporting Facility
EDT Latitude Longitude Course Direction KTS MPH feet Rate Location/Type
Fri 09:54:55 PM 41.7500 -87.7833 277° West 148 170 2,900  Level Chicago TRACON
Fri 09:55:34 PM 41.7469 -87.8178 263° West 171 197 3,100 653 Climbing Chicago Center
Fri 09:56:36 PM 41.7400 -87.9161 265° West 229 264 4,000 871 Climbing Chicago Center
Fri 09:57:38 PM 41.7778 -87.9950 303° West 269 310 4,900 2,049 Climbing Chicago Center
Fri 09:58:39 PM 41.8367 -88.0542 323° Northwest 269 310 8,200 2,976 Climbing Chicago Center
Fri 09:59:41 PM 41.8925 -88.1183 319° Northwest 268 308 11,000 2,537 Climbing Chicago Center
Fri 10:00:00 PM 41.8781 -88.7016 277° West  Level FlightAware Approximate
Fri 10:00:42 PM 41.9347 -88.2047 303° West 293 337 13,400  Level Chicago Center
Fri 10:01:44 PM 41.9647 -88.3308 288° West 298 343 15,900 1,951 Climbing Chicago Center
Fri 10:02:45 PM 41.9922 -88.4492 287° West 326 375 17,400 1,512 Climbing Chicago Center
Fri 10:03:47 PM 42.0233 -88.5844 287° West 373 429 19,000 1,610 Climbing Chicago Center
Fri 10:04:48 PM 42.0436 -88.7319 281° West 406 467 20,700 1,756 Climbing Chicago Center
Fri 10:05:50 PM 42.0597 -88.8864 278° West 420 483 22,600 1,951 Climbing Chicago Center
Fri 10:06:51 PM 42.0786 -89.0669 278° West 426 490 24,700 1,805 Climbing Chicago Center
Fri 10:07:53 PM 42.0953 -89.2308 278° West 436 502 26,300 1,366 Climbing Chicago Center
Fri 10:08:54 PM 42.1144 -89.3986 279° West 448 516 27,500 1,122 Climbing Chicago Center
Fri 10:09:56 PM 42.1283 -89.5700 276° West 457 526 28,600 1,403 Climbing Chicago Center
Fri 10:10:58 PM 42.1275 -89.7478 270° West 470 541 30,400 1,951 Climbing Chicago Center
Fri 10:11:59 PM 42.1286 -89.9244 271° West 452 520 32,600 1,659 Climbing Chicago Center
Fri 10:13:01 PM 42.1342 -90.0831 273° West 431 496 33,800 1,073 Climbing Chicago Center
Fri 10:14:02 PM 42.1558 -90.2442 280° West 438 504 34,800 976 Climbing Chicago Center
Fri 10:15:04 PM 42.1769 -90.4039 280° West 437 503 35,800 585 Climbing Chicago Center
Fri 10:16:05 PM 42.1958 -90.5617 279° West 431 496 36,000 98 Climbing Chicago Center
Fri 10:17:07 PM 42.2197 -90.7528 280° West 432 497 36,000  Level Chicago Center
Fri 10:18:08 PM 42.2406 -90.9083 280° West 427 491 36,000  Level Chicago Center
Fri 10:19:10 PM 42.2575 -91.0664 278° West 426 490 36,000  Level Chicago Center
Fri 10:20:11 PM 42.2786 -91.2203 281° West 423 487 36,000  Level Chicago Center
Fri 10:21:13 PM 42.2967 -91.3753 279° West 419 482 36,000  Level Chicago Center
Fri 10:22:15 PM 42.3158 -91.5303 280° West 418 481 36,000  Level Chicago Center
Fri 10:23:16 PM 42.3336 -91.6839 279° West 415 478 36,000  Level Chicago Center
Fri 10:24:18 PM 42.3550 -91.8644 279° West 408 470 36,000  Level Chicago Center
Fri 10:25:19 PM 42.3728 -92.0178 279° West 411 473 36,000  Level Chicago Center
Fri 10:26:21 PM 42.3906 -92.1753 279° West 419 482 36,000  Level Chicago Center
Fri 10:27:23 PM 42.4089 -92.3342 279° West 428 493 36,000  Level Chicago Center
Fri 10:28:24 PM 42.4256 -92.4931 278° West 428 493 36,000  Level Chicago Center
Fri 10:29:26 PM 42.4442 -92.6544 279° West 435 501 36,000  Level Chicago Center
Fri 10:30:27 PM 42.4614 -92.8169 278° West 439 505 36,000  Level Chicago Center
Fri 10:31:29 PM 42.4819 -93.0086 278° West 434 499 36,000  Level Chicago Center
Fri 10:32:17 PM 42.4953 -93.1375 278° West 433 498 36,000  Level Minneapolis Center
Fri 10:33:18 PM 42.5122 -93.2947 278° West 428 493 36,000 344 Level Minneapolis Center
Fri 10:34:19 PM 42.5278 -93.4528 278° West 427 491 36,700 488 Climbing Minneapolis Center
Fri 10:35:21 PM 42.5431 -93.6114 278° West 428 493 37,000 146 Climbing Minneapolis Center
Fri 10:36:22 PM 42.5597 -93.7692 278° West 429 494 37,000  Level Minneapolis Center
Fri 10:37:23 PM 42.5722 -93.8969 278° West 430 495 37,000  Level Minneapolis Center
Fri 10:38:25 PM 42.5917 -94.0878 278° West 430 495 37,000  Level Minneapolis Center
Fri 10:39:26 PM 42.6100 -94.2753 278° West 424 488 37,000  Level Minneapolis Center
Fri 10:40:27 PM 42.6597 -94.4242 294° West 437 503 37,000  Level Minneapolis Center
Fri 10:41:29 PM 42.7317 -94.5625 305° West 449 517 37,000  Level Minneapolis Center
Fri 10:42:30 PM 42.8164 -94.7117 308° West 454 522 37,000  Level Minneapolis Center
Fri 10:43:31 PM 42.8958 -94.8444 309° West 453 521 37,000  Level Minneapolis Center
Fri 10:44:32 PM 42.9731 -94.9803 308° West 453 521 37,000  Level Minneapolis Center
Fri 10:45:34 PM 43.0511 -95.1108 309° West 448 516 37,000  Level Minneapolis Center
Fri 10:46:35 PM 43.1294 -95.2425 309° West 446 513 37,000  Level Minneapolis Center
Fri 10:47:36 PM 43.2069 -95.3756 309° West 447 514 37,000  Level Minneapolis Center
Fri 10:48:37 PM 43.2831 -95.5089 308° West 445 512 37,000  Level Minneapolis Center
Fri 10:49:38 PM 43.3442 -95.6150 308° West 444 511 37,000  Level Minneapolis Center
Fri 10:50:52 PM 43.4344 -95.7733 308° West 440 506 37,000  Level Minneapolis Center
Fri 10:51:53 PM 43.5392 -95.9597 308° West 439 505 37,000  Level Minneapolis Center
Fri 10:52:55 PM 43.6156 -96.0900 309° West 437 503 37,000  Level Minneapolis Center
Fri 10:53:56 PM 43.6942 -96.2186 310° West 437 503 37,000  Level Minneapolis Center
Fri 10:54:57 PM 43.7728 -96.3436 311° West 432 497 37,000  Level Minneapolis Center
Fri 10:55:58 PM 43.8378 -96.4797 304° West 423 487 37,000  Level Minneapolis Center
Fri 10:57:00 PM 43.8936 -96.6275 298° West 429 494 37,000  Level Minneapolis Center
Fri 10:58:01 PM 43.9372 -96.7836 291° West 431 496 37,000 49 Level Minneapolis Center
Fri 10:59:02 PM 43.9817 -96.9419 291° West 437 503 37,100  Climbing Minneapolis Center
Fri 11:00:03 PM 44.0278 -97.1022 292° West 444 511 37,000 -49 Descending Minneapolis Center
Fri 11:01:04 PM 44.0725 -97.2636 291° West 446 513 37,000  Level Minneapolis Center
Fri 11:02:05 PM 44.1172 -97.4219 292° West 442 509 37,000  Level Minneapolis Center
Fri 11:03:07 PM 44.1608 -97.5797 291° West 438 504 37,000  Level Minneapolis Center
Fri 11:05:09 PM 44.2478 -97.8967 291° West 438 504 37,000  Level Minneapolis Center
Fri 11:06:22 PM 44.2994 -98.0875 291° West 439 505 37,000  Level Minneapolis Center
Fri 11:07:24 PM 44.3506 -98.2758 291° West 435 501 37,000 293 Level Minneapolis Center
Fri 11:08:25 PM 44.3889 -98.4203 290° West 422 486 37,600 492 Climbing Minneapolis Center
Fri 11:09:26 PM 44.4289 -98.5692 291° West 410 472 38,000 197 Climbing Minneapolis Center
Fri 11:10:27 PM 44.4442 -98.7275 278° West 410 472 38,000  Level Minneapolis Center
Fri 11:11:28 PM 44.4664 -98.8850 281° West 410 472 38,000  Level Minneapolis Center
Fri 11:12:29 PM 44.4922 -99.0453 283° West 419 482 38,000  Level Minneapolis Center
Fri 11:13:30 PM 44.5264 -99.2044 287° West 424 488 38,000  Level Minneapolis Center
Fri 11:14:32 PM 44.5572 -99.3619 285° West 421 484 38,000  Level Minneapolis Center
Fri 11:15:33 PM 44.5908 -99.5525 284° West 418 481 38,000  Level Minneapolis Center
Fri 11:16:34 PM 44.6242 -99.7056 287° West 412 474 38,000  Level Minneapolis Center
Fri 11:17:35 PM 44.6589 -99.8294 292° West 416 479 38,000  Level Minneapolis Center
Fri 11:18:38 PM 44.7097 -100.0164 291° West 421 484 38,000  Level Minneapolis Center
Fri 11:19:39 PM 44.7481 -100.1739 289° West 422 486 38,000  Level Minneapolis Center
Fri 11:20:40 PM 44.7883 -100.3306 290° West 422 486 38,000  Level Minneapolis Center
Fri 11:21:41 PM 44.8275 -100.4861 290° West 420 483 38,000  Level Minneapolis Center
Fri 11:22:42 PM 44.8675 -100.6439 290° West 423 487 38,000  Level Minneapolis Center
Fri 11:23:43 PM 44.9064 -100.8025 289° West 425 489 38,000  Level Minneapolis Center
Fri 11:24:44 PM 44.9461 -100.9625 289° West 428 493 38,000  Level Minneapolis Center
Fri 11:25:45 PM 44.9875 -101.1261 290° West 436 502 38,000  Level Minneapolis Center
Fri 11:26:46 PM 45.0286 -101.2900 290° West 440 506 38,000  Level Minneapolis Center
Fri 11:27:47 PM 45.0672 -101.4547 288° West 441 507 38,000  Level Minneapolis Center
Fri 11:28:48 PM 45.1078 -101.6200 289° West 443 510 38,000  Level Minneapolis Center
Fri 11:29:49 PM 45.1481 -101.7858 289° West 445 512 38,000  Level Minneapolis Center
Fri 11:30:50 PM 45.1947 -101.9850 288° West 444 511 38,000  Level Minneapolis Center
Fri 11:31:51 PM 45.2322 -102.1508 288° West 442 509 38,000  Level Minneapolis Center
Fri 11:32:52 PM 45.2722 -102.3161 289° West 443 510 38,000  Level Minneapolis Center
Fri 11:33:53 PM 45.3106 -102.4828 288° West 444 511 38,000  Level Minneapolis Center
Fri 11:34:54 PM 45.3486 -102.6511 288° West 447 514 38,000  Level Minneapolis Center
Fri 11:35:55 PM 45.3858 -102.8206 287° West 449 517 38,000  Level Minneapolis Center
Fri 11:36:56 PM 45.4247 -102.9908 288° West 451 519 38,000  Level Minneapolis Center
Fri 11:38:09 PM 45.4622 -103.1625 287° West 453 521 38,000  Level Minneapolis Center
Fri 11:39:10 PM 45.5097 -103.3756 288° West 454 522 38,000  Level Minneapolis Center
Fri 11:40:11 PM 45.5481 -103.5500 287° West 458 527 38,000  Level Minneapolis Center
Fri 11:41:12 PM 45.5858 -103.7244 287° West 460 529 38,000  Level Minneapolis Center
Fri 11:42:13 PM 45.6228 -103.8989 287° West 460 529 38,000  Level Minneapolis Center
Fri 11:43:14 PM 45.6606 -104.0744 287° West 461 531 38,000  Level Minneapolis Center
Fri 11:44:15 PM 45.6978 -104.2506 287° West 463 533 38,000  Level Minneapolis Center
Fri 11:45:16 PM 45.7331 -104.4256 286° West 460 529 38,000  Level Minneapolis Center
Fri 11:46:42 PM 45.7839 -104.6747 286° West 464 534 38,000  Level Salt Lake Center
Fri 11:47:44 PM 45.8206 -104.8517 287° West 464 534 38,000  Level Salt Lake Center
Fri 11:48:45 PM 45.8639 -105.0639 286° West 464 534 38,000  Level Salt Lake Center
Fri 11:49:46 PM 45.8992 -105.2408 286° West 463 533 38,000  Level Salt Lake Center
Fri 11:50:47 PM 45.9336 -105.4161 286° West 461 531 38,000  Level Salt Lake Center
Fri 11:51:48 PM 45.9681 -105.5906 286° West 458 527 38,000  Level Salt Lake Center
Fri 11:52:49 PM 46.0022 -105.7664 286° West 457 526 38,000  Level Salt Lake Center
Fri 11:53:50 PM 46.0358 -105.9408 286° West 456 525 38,000  Level Salt Lake Center
Fri 11:54:51 PM 46.0697 -106.1164 286° West 455 524 38,000  Level Salt Lake Center
Fri 11:55:52 PM 46.1022 -106.2897 285° West 454 522 38,000  Level Salt Lake Center
Fri 11:56:53 PM 46.1350 -106.4625 285° West 451 519 38,000  Level Salt Lake Center
Fri 11:57:54 PM 46.1672 -106.6328 285° West 448 516 38,000  Level Salt Lake Center
Fri 11:58:55 PM 46.1972 -106.8053 284° West 447 514 38,000  Level Salt Lake Center
Fri 11:59:56 PM 46.2281 -106.9778 285° West 446 513 38,000  Level Salt Lake Center
Sat 12:00:57 AM 46.2661 -107.1842 285° West 444 511 38,000  Level Salt Lake Center
Sat 12:01:59 AM 46.3006 -107.3569 286° West 448 516 38,000  Level Salt Lake Center
Sat 12:02:59 AM 46.3342 -107.5469 284° West 455 524 38,000  Level Salt Lake Center
Sat 12:04:00 AM 46.3653 -107.7219 285° West 458 527 38,000  Level Salt Lake Center
Sat 12:05:02 AM 46.3958 -107.8969 284° West 455 524 38,000  Level Salt Lake Center
Sat 12:06:02 AM 46.4292 -108.0864 284° West 454 522 38,000  Level Salt Lake Center
Sat 12:07:03 AM 46.4589 -108.2600 284° West 451 519 38,000  Level Salt Lake Center
Sat 12:08:04 AM 46.4889 -108.4339 284° West 450 518 38,000  Level Salt Lake Center
Sat 12:09:05 AM 46.5194 -108.6206 283° West 447 514 38,000  Level Salt Lake Center
Sat 12:10:06 AM 46.5478 -108.7925 284° West 445 512 38,000  Level Salt Lake Center
Sat 12:11:07 AM 46.5772 -108.9650 284° West 450 518 38,000  Level Salt Lake Center
Sat 12:12:08 AM 46.6081 -109.1536 283° West 444 511 38,000  Level Salt Lake Center
Sat 12:13:09 AM 46.6358 -109.3286 283° West 448 516 38,000  Level Salt Lake Center
Sat 12:14:10 AM 46.6611 -109.4964 282° West 455 524 38,000  Level Salt Lake Center
Sat 12:15:11 AM 46.6892 -109.6717 283° West 450 518 38,000  Level Salt Lake Center
Sat 12:16:12 AM 46.7153 -109.8467 282° West 443 510 38,000  Level Salt Lake Center
Sat 12:17:13 AM 46.7428 -110.0206 283° West 442 509 38,000  Level Salt Lake Center
Sat 12:18:14 AM 46.7692 -110.1944 283° West 441 507 38,000  Level Salt Lake Center
Sat 12:19:15 AM 46.7958 -110.3714 282° West 443 510 38,000  Level Salt Lake Center
Sat 12:20:16 AM 46.8219 -110.5472 282° West 445 512 38,000  Level Salt Lake Center
Sat 12:21:17 AM 46.8494 -110.7247 283° West 446 513 38,000  Level Salt Lake Center
Sat 12:22:18 AM 46.8808 -110.9383 282° West 448 516 38,000  Level Salt Lake Center
Sat 12:23:19 AM 46.9072 -111.1192 282° West 452 520 38,000  Level Salt Lake Center
Sat 12:24:21 AM 46.9317 -111.2997 281° West 452 520 38,000  Level Salt Lake Center
Sat 12:25:22 AM 46.9567 -111.4797 282° West 451 519 38,000  Level Salt Lake Center
Sat 12:26:23 AM 46.9822 -111.6622 282° West 454 522 38,000  Level Salt Lake Center
Sat 12:27:24 AM 47.0067 -111.8428 281° West 453 521 38,000  Level Salt Lake Center
Sat 12:28:25 AM 47.0317 -112.0244 281° West 454 522 38,000  Level Salt Lake Center
Sat 12:29:26 AM 47.0550 -112.2047 281° West 452 520 38,000  Level Salt Lake Center
Sat 12:30:27 AM 47.0797 -112.3836 282° West 449 517 38,000  Level Salt Lake Center
Sat 12:31:28 AM 47.1025 -112.5639 281° West 449 517 38,000  Level Salt Lake Center
Sat 12:32:29 AM 47.1258 -112.7422 281° West 446 513 38,000  Level Salt Lake Center
Sat 12:33:30 AM 47.1506 -112.9378 281° West 452 520 38,000  Level Salt Lake Center
Sat 12:34:31 AM 47.1728 -113.1192 280° West 451 519 38,000  Level Salt Lake Center
Sat 12:35:32 AM 47.1947 -113.3014 280° West 453 521 38,000  Level Salt Lake Center
Sat 12:36:33 AM 47.2169 -113.4833 280° West 453 521 38,000  Level Salt Lake Center
Sat 12:37:34 AM 47.2392 -113.6669 280° West 456 525 38,000  Level Salt Lake Center
Sat 12:38:36 AM 47.2603 -113.8503 280° West 456 525 38,000  Level Salt Lake Center
Sat 12:39:37 AM 47.2822 -114.0342 280° West 455 524 38,000  Level Salt Lake Center
Sat 12:40:38 AM 47.3033 -114.2178 280° West 453 521 38,000  Level Salt Lake Center
Sat 12:41:39 AM 47.3239 -114.4028 279° West 456 525 38,000  Level Salt Lake Center
Sat 12:42:40 AM 47.3489 -114.6242 280° West 455 524 38,000  Level Salt Lake Center
Sat 12:43:41 AM 47.3697 -114.8094 279° West 456 525 38,000  Level Salt Lake Center
Sat 12:44:42 AM 47.3894 -114.9967 279° West 459 528 38,000  Level Salt Lake Center
Sat 12:45:43 AM 47.4083 -115.1825 279° West 458 527 38,000  Level Salt Lake Center
Sat 12:46:45 AM 47.4269 -115.3694 278° West 460 529 38,000  Level Salt Lake Center
Sat 12:47:45 AM 47.4453 -115.5542 278° West 456 525 38,000  Level Salt Lake Center
Sat 12:48:46 AM 47.4625 -115.7386 278° West 455 524 38,000  Level Salt Lake Center
Sat 12:49:47 AM 47.4800 -115.9200 278° West 448 516 38,000  Level Salt Lake Center
Sat 12:50:48 AM 47.4964 -116.0978 278° West 448 516 38,000  Level Salt Lake Center
Sat 12:51:50 AM 47.5128 -116.2814 278° West 452 520 38,000  Level Salt Lake Center
Sat 12:53:07 AM 47.5364 -116.5375 278° West 451 519 38,000  Level Seattle Center
Sat 12:54:08 AM 47.5522 -116.7231 277° West 454 522 38,000  Level Seattle Center
Sat 12:55:08 AM 47.5681 -116.9089 277° West 456 525 38,000  Level Seattle Center
Sat 12:56:09 AM 47.5853 -117.1031 278° West 460 529 38,000  Level Seattle Center
Sat 12:57:09 AM 47.5992 -117.2678 277° West 463 533 38,000  Level Seattle Center
Sat 12:58:10 AM 47.6175 -117.4919 277° West 460 529 38,000  Level Seattle Center
Sat 12:59:10 AM 47.6322 -117.6783 277° West 458 527 38,000  Level Seattle Center
Sat 01:00:11 AM 47.6464 -117.8619 277° West 453 521 38,000  Level Seattle Center
Sat 01:01:12 AM 47.6606 -118.0475 277° West 453 521 38,000  Level Seattle Center
Sat 01:02:12 AM 47.6744 -118.2303 277° West 449 517 38,000  Level Seattle Center
Sat 01:03:13 AM 47.6875 -118.4156 276° West 452 520 38,000  Level Seattle Center
Sat 01:04:13 AM 47.7006 -118.6017 276° West 455 524 38,000  Level Seattle Center
Sat 01:05:14 AM 47.7133 -118.7875 276° West 454 522 38,000  Level Seattle Center
Sat 01:06:14 AM 47.7264 -118.9708 276° West 448 516 38,000  Level Seattle Center
Sat 01:07:15 AM 47.7389 -119.1583 276° West 456 525 38,000  Level Seattle Center
Sat 01:08:16 AM 47.7497 -119.3425 275° West 451 519 38,000  Level Seattle Center
Sat 01:09:16 AM 47.7628 -119.5306 276° West 458 527 38,000  Level Seattle Center
Sat 01:10:17 AM 47.7736 -119.7147 275° West 452 520 38,000 -149 Level Seattle Center
Sat 01:11:17 AM 47.7842 -119.8994 275° West 451 519 37,700 -843 Descending Seattle Center
Sat 01:12:18 AM 47.7936 -120.0850 274° West 451 519 36,300 -2,132 Descending Seattle Center
Sat 01:13:18 AM 47.7922 -120.2692 269° West 448 516 33,400 -3,025 Descending Seattle Center
Sat 01:14:19 AM 47.7897 -120.4492 269° West 439 505 30,200 -3,000 Descending Seattle Center
Sat 01:15:20 AM 47.7878 -120.6267 269° West 434 499 27,300 -2,479 Descending Seattle Center
Sat 01:16:20 AM 47.7850 -120.8019 269° West 428 493 25,200 -2,083 Descending Seattle Center
Sat 01:17:21 AM 47.7864 -120.9778 271° West 402 463 23,100 -2,125 Descending Seattle Center
Sat 01:17:56 AM 47.7839 -121.0908 268° West 392 451 21,800 -1,938 Descending Seattle Center
Sat 01:18:57 AM 47.7800 -121.2458 268° West 371 427 20,000 -1,785 Descending Seattle Center
Sat 01:19:57 AM 47.7781 -121.3925 269° West 355 409 18,200 -1,686 Descending Seattle Center
Sat 01:20:58 AM 47.7750 -121.5433 268° West 363 418 16,600 -2,035 Descending Seattle Center
Sat 01:21:52 AM 47.7725 -121.6803 268° West 368 423 14,300 -2,471 Descending Seattle Center
Sat 01:22:23 AM 47.7697 -121.7592 267° West 360 414 13,100 -1,696 Descending Seattle Center
Sat 01:23:24 AM 47.7483 -121.8933 257° West 349 402 11,700 -1,438 Descending Seattle Center
Sat 01:24:24 AM 47.6792 -121.9831 221° Southwest 329 379 10,200 -843 Descending Seattle Center
Sat 01:25:25 AM 47.6139 -122.0719 223° Southwest 318 366 10,000 -99 Descending Seattle Center
Sat 01:26:25 AM 47.5564 -122.1475 222° Southwest 278 320 10,000 -545 Level Seattle Center
Sat 01:27:26 AM 47.4786 -122.1575 185° South 263 303 8,900 -1,240 Descending Seattle Center
Sat 01:28:26 AM 47.4056 -122.1542 178° South 261 300 7,500 -1,140 Descending Seattle Center
Sat 01:29:27 AM 47.3339 -122.1519 179° South 257 296 6,600 -793 Descending Seattle Center
Sat 01:30:27 AM 47.2828 -122.1889 206° Southwest 227 261 5,900 -893 Descending Seattle Center
Sat 01:31:28 AM 47.2786 -122.2653 265° West 192 221 4,800 -1,140 Descending Seattle Center
Sat 01:32:28 AM 47.3081 -122.3186 309° West 171 197 3,600 -1,190 Descending Seattle Center
Sat 01:33:29 AM 47.3494 -122.3178 North 152 175 2,400 -1,109 Descending Seattle Center
Sat 01:34:00 AM 47.3708 -122.3197 356° North 147 169 1,900 -923 Descending Seattle Center
Sat 01:35:13 AM 47.4197 -122.3189 North 150 173 800 -640 Descending Seattle Center
Sat 01:36:30 AM 47.4786 -122.3194 360° North 152 175 300 -390 Descending Seattle Center

Login

Don't have an account? Register now (free) for customized features, flight alerts, and more!